Time;durP1;ratioP1;P1;durP2;ratioP2;P2;SDS_P1;SDS_P2;PMS_P1;PMS_P2;Temp;Humidity;BMP_temperature;BMP_pressure;BME280_temperature;BME280_humidity;BME280_pressure;Samples;Min_cycle;Max_cycle;Signal;HPM_P1;HPM_P2
2023/08/09 00:01:07;;;;;;;6.45;0.90;;;;;;;9.08;55.26;100974.06;4992127;28;20037;-73
2023/08/09 00:03:35;;;;;;;5.53;0.55;;;;;;;9.01;55.93;100973.41;4986840;28;20093;-73
2023/08/09 00:06:00;;;;;;;1.75;0.35;;;;;;;9.29;55.10;100975.13;5008109;28;20033;-73
2023/08/09 00:08:26;;;;;;;7.20;0.75;;;;;;;9.44;55.01;100977.22;4989617;28;20295;-73
2023/08/09 00:10:51;;;;;;;5.15;0.77;;;;;;;9.42;55.11;100999.06;4987476;28;20208;-68
2023/08/09 00:13:17;;;;;;;3.40;0.38;;;;;;;9.44;55.00;101025.94;5004755;28;20504;-73
2023/08/09 00:15:42;;;;;;;3.78;0.20;;;;;;;9.53;55.21;101020.41;4987005;28;20421;-72
2023/08/09 00:18:07;;;;;;;3.95;0.30;;;;;;;9.67;55.20;101015.56;4989668;28;20542;-72
2023/08/09 00:20:33;;;;;;;4.55;0.88;;;;;;;9.93;54.68;101017.34;4989247;28;20045;-71
2023/08/09 00:22:58;;;;;;;3.30;0.20;;;;;;;9.98;54.54;101014.56;4975003;28;20058;-72
2023/08/09 00:25:24;;;;;;;3.33;0.20;;;;;;;10.04;54.43;101013.50;4986749;28;20033;-72
2023/08/09 00:27:50;;;;;;;1.25;0.30;;;;;;;9.79;55.03;101004.75;4992736;28;20124;-72
2023/08/09 00:30:15;;;;;;;3.90;0.20;;;;;;;10.04;54.55;100998.69;4974529;28;20037;-71
2023/08/09 00:32:41;;;;;;;1.55;0.10;;;;;;;10.07;54.50;100993.34;5006901;28;20057;-72
2023/08/09 00:35:08;;;;;;;4.10;0.60;;;;;;;10.00;54.91;100982.25;4994373;28;20046;-72
2023/08/09 00:37:35;;;;;;;6.60;0.20;;;;;;;9.97;54.95;100984.16;4984207;28;20041;-72
2023/08/09 00:40:05;;;;;;;6.60;0.40;;;;;;;9.72;55.78;100974.53;4994418;28;20408;-72
2023/08/09 00:42:30;;;;;;;4.07;0.20;;;;;;;9.82;55.55;100984.69;4988638;28;20041;-72
2023/08/09 00:44:56;;;;;;;1.85;0.20;;;;;;;9.89;55.48;100988.78;4993140;28;20412;-72
2023/08/09 00:47:22;;;;;;;1.50;0.20;;;;;;;9.89;55.60;100992.22;5001906;28;20045;-69
2023/08/09 00:49:48;;;;;;;4.50;0.20;;;;;;;9.84;55.82;100980.25;5002518;28;20029;-65
2023/08/09 00:52:16;;;;;;;6.53;0.40;;;;;;;9.91;55.64;100979.13;4990456;28;20115;-66
2023/08/09 00:54:42;;;;;;;3.30;0.20;;;;;;;9.85;55.50;100976.72;4990398;28;20037;-67
2023/08/09 00:57:08;;;;;;;3.47;0.35;;;;;;;9.96;55.21;100979.81;4992712;28;20033;-66
2023/08/09 00:59:34;;;;;;;1.33;0.35;;;;;;;10.04;55.24;100987.38;4988118;28;20036;-66
2023/08/09 01:02:00;;;;;;;1.63;0.20;;;;;;;10.07;55.36;100988.13;5006034;28;20381;-67
2023/08/09 01:04:26;;;;;;;2.47;0.52;;;;;;;10.03;55.05;100981.28;4986060;28;20041;-66
2023/08/09 01:07:02;;;;;;;2.95;0.20;;;;;;;10.00;55.13;100986.63;4973106;28;20199;-65
2023/08/09 01:09:36;;;;;;;3.90;0.70;;;;;;;9.61;55.86;100984.50;4989698;28;20035;-66
2023/08/09 01:12:07;;;;;;;3.53;0.40;;;;;;;9.67;56.09;100984.25;4992465;28;20568;-67
2023/08/09 01:14:36;;;;;;;1.58;0.20;;;;;;;9.62;55.93;100986.19;5004010;28;20092;-67
2023/08/09 01:17:03;;;;;;;5.25;0.20;;;;;;;9.59;55.77;100988.91;4990812;28;20044;-68
2023/08/09 01:19:32;;;;;;;1.70;0.20;;;;;;;9.72;55.15;100984.09;4985349;28;20068;-67
2023/08/09 01:22:03;;;;;;;4.90;0.30;;;;;;;9.63;55.09;100993.09;5003634;28;20381;-67
2023/08/09 01:24:29;;;;;;;7.05;0.30;;;;;;;9.35;56.26;100987.97;4990363;28;20088;-77
2023/08/09 01:26:55;;;;;;;3.72;0.77;;;;;;;9.35;56.15;100991.41;5000956;28;20041;-77
2023/08/09 01:29:21;;;;;;;5.55;0.32;;;;;;;9.28;56.43;100992.53;4995949;28;20092;-77
2023/08/09 01:31:46;;;;;;;4.70;0.82;;;;;;;9.39;55.80;100993.03;4990830;28;20101;-76
2023/08/09 01:34:12;;;;;;;9.20;0.93;;;;;;;9.27;55.79;100990.81;4996003;28;20361;-76
2023/08/09 01:36:42;;;;;;;3.58;0.20;;;;;;;9.32;56.14;100993.25;4989424;28;20141;-75
2023/08/09 01:39:14;;;;;;;3.00;0.30;;;;;;;9.12;56.37;100996.53;4994992;28;20061;-73
2023/08/09 01:41:43;;;;;;;;;;;;;;;9.12;56.36;100997.41;4992163;28;20465;-75
2023/08/09 01:44:11;;;;;;;2.60;0.47;;;;;;;9.04;56.76;100994.16;4991234;28;19928;-68
2023/08/09 01:46:38;;;;;;;5.07;0.28;;;;;;;8.92;57.07;100998.03;4985427;28;20065;-70
2023/08/09 01:49:14;;;;;;;4.95;0.20;;;;;;;8.91;56.82;100998.91;4990565;28;20041;-66
2023/08/09 01:51:40;;;;;;;4.97;0.38;;;;;;;8.53;58.00;101010.47;4992221;28;20602;-67
2023/08/09 01:54:07;;;;;;;2.22;0.22;;;;;;;8.89;57.02;101005.91;4989765;28;20045;-67
2023/08/09 01:56:34;;;;;;;3.17;0.30;;;;;;;8.80;57.35;101006.19;4987943;28;20055;-68
2023/08/09 01:59:00;;;;;;;2.95;0.22;;;;;;;8.79;57.28;101003.66;4990164;28;20111;-68
2023/08/09 02:01:26;;;;;;;6.95;1.02;;;;;;;8.88;57.27;101009.44;4985563;28;20488;-68
2023/08/09 02:03:51;;;;;;;3.03;0.20;;;;;;;8.70;57.73;101000.41;4987268;28;20069;-68
2023/08/09 02:06:17;;;;;;;2.22;0.28;;;;;;;8.84;57.58;101013.03;4987669;28;20488;-68
2023/08/09 02:08:43;;;;;;;1.42;0.25;;;;;;;8.73;57.70;101009.91;5002193;28;20124;-71
2023/08/09 02:11:09;;;;;;;2.20;0.25;;;;;;;8.22;59.32;101019.13;4986808;28;20042;-70
2023/08/09 02:13:35;;;;;;;10.90;0.47;;;;;;;8.57;58.34;101009.47;4987773;28;20049;-76
2023/08/09 02:16:03;;;;;;;4.15;0.22;;;;;;;8.80;57.73;101006.19;4995512;28;20041;-75
2023/08/09 02:18:29;;;;;;;4.25;0.50;;;;;;;8.83;57.39;101013.94;5004375;28;20128;-73
2023/08/09 02:20:55;;;;;;;9.95;0.38;;;;;;;9.06;56.78;101018.44;4990041;28;20136;-75
2023/08/09 02:23:20;;;;;;;3.25;0.30;;;;;;;9.22;56.26;101024.03;4992872;28;20050;-75
2023/08/09 02:25:46;;;;;;;7.68;0.50;;;;;;;9.09;56.65;101018.34;4993433;28;20037;-75
2023/08/09 02:28:12;;;;;;;3.92;0.65;;;;;;;9.04;56.65;101015.03;4984827;28;20488;-67
2023/08/09 02:30:38;;;;;;;3.38;0.40;;;;;;;8.79;57.59;101027.97;4986508;28;20087;-67
2023/08/09 02:33:03;;;;;;;6.07;0.32;;;;;;;9.08;56.79;101018.41;4986849;28;20054;-66
2023/08/09 02:35:46;;;;;;;3.17;0.20;;;;;;;9.04;56.30;101016.78;5004265;28;20282;-68
2023/08/09 02:38:11;;;;;;;1.63;0.10;;;;;;;9.19;55.83;101017.16;4991848;28;20398;-68
2023/08/09 02:40:37;;;;;;;3.08;0.30;;;;;;;9.15;55.70;101012.94;4987692;28;20045;-67
2023/08/09 02:43:03;;;;;;;6.28;0.70;;;;;;;8.95;56.31;101016.16;4994872;28;20041;-67
2023/08/09 02:45:28;;;;;;;4.03;0.40;;;;;;;9.04;56.23;101011.56;5006515;28;20111;-67
2023/08/09 02:47:54;;;;;;;4.18;0.50;;;;;;;9.02;56.47;101021.19;4990765;28;20417;-67
2023/08/09 02:50:19;;;;;;;1.80;0.22;;;;;;;8.83;56.94;101019.16;4989434;28;20033;-66
2023/08/09 02:52:45;;;;;;;3.30;0.30;;;;;;;8.43;58.60;101028.13;4975135;28;20049;-68
2023/08/09 02:55:13;;;;;;;3.25;0.40;;;;;;;8.15;59.56;101028.03;4978025;28;20049;-68
2023/08/09 02:57:38;;;;;;;8.88;0.52;;;;;;;8.51;58.34;101031.34;4967629;28;20408;-68
2023/08/09 03:00:06;;;;;;;1.33;0.20;;;;;;;8.70;58.06;101025.59;4991817;28;20396;-68
2023/08/09 03:02:32;;;;;;;4.28;1.25;;;;;;;8.85;57.12;101025.19;4994598;28;20098;-68
2023/08/09 03:04:59;;;;;;;7.13;0.20;;;;;;;8.91;57.12;101024.97;4990581;28;20041;-68
2023/08/09 03:07:25;;;;;;;2.35;0.35;;;;;;;8.93;56.56;101028.38;4989911;28;20077;-68
2023/08/09 03:09:51;;;;;;;1.33;0.20;;;;;;;8.88;57.29;101035.50;5004669;28;20129;-68
2023/08/09 03:12:16;;;;;;;4.07;0.40;;;;;;;8.74;57.75;101030.72;4993993;28;20044;-68
2023/08/09 03:14:42;;;;;;;5.28;0.20;;;;;;;8.85;57.34;101037.34;5003718;28;20034;-69
2023/08/09 03:17:07;;;;;;;4.65;0.30;;;;;;;8.88;57.44;101040.72;4996724;28;20408;-67
2023/08/09 03:19:33;;;;;;;5.45;0.30;;;;;;;8.84;56.93;101038.25;5005465;28;20080;-65
2023/08/09 03:21:58;;;;;;;2.85;0.30;;;;;;;8.87;57.05;101048.56;4990570;28;20106;-66
2023/08/09 03:24:24;;;;;;;2.38;0.73;;;;;;;8.80;57.64;101050.50;4992416;28;20274;-67
2023/08/09 03:26:50;;;;;;;2.50;0.30;;;;;;;8.70;57.74;101051.66;4988844;28;20033;-68
2023/08/09 03:29:18;;;;;;;1.83;0.30;;;;;;;8.95;57.33;101057.03;4973234;28;20050;-69
2023/08/09 03:31:43;;;;;;;2.15;0.25;;;;;;;8.81;57.49;101054.84;4990981;28;20034;-67
2023/08/09 03:34:11;;;;;;;1.67;0.30;;;;;;;8.59;58.50;101051.97;4990390;28;20205;-67
2023/08/09 03:36:36;;;;;;;4.97;0.20;;;;;;;8.93;57.53;101056.22;4987486;28;20057;-68
2023/08/09 03:39:02;;;;;;;7.40;0.30;;;;;;;8.72;57.82;101058.56;5006514;28;20046;-69
2023/08/09 03:41:28;;;;;;;0.70;0.20;;;;;;;9.00;57.21;101055.13;4989317;28;20034;-69
2023/08/09 03:43:54;;;;;;;1.88;0.20;;;;;;;9.03;57.41;101064.59;4991360;28;20034;-68
2023/08/09 03:46:19;;;;;;;3.20;0.30;;;;;;;9.12;57.21;101069.53;4991772;28;20038;-69
2023/08/09 03:48:45;;;;;;;4.50;0.20;;;;;;;9.04;57.94;101069.78;4988935;28;20033;-69
2023/08/09 03:51:10;;;;;;;6.63;0.45;;;;;;;9.25;57.21;101076.06;4978416;28;20040;-68
2023/08/09 03:53:36;;;;;;;0.70;0.15;;;;;;;9.51;56.60;101093.53;4988042;28;20504;-68
2023/08/09 03:56:01;;;;;;;1.13;0.35;;;;;;;9.59;56.48;101101.13;4992154;28;20156;-69
2023/08/09 03:58:27;;;;;;;2.42;0.80;;;;;;;9.72;56.33;101109.38;4990061;28;20042;-69
2023/08/09 04:00:52;;;;;;;4.07;0.32;;;;;;;9.82;56.18;101107.38;4991288;28;20093;-68
2023/08/09 04:03:18;;;;;;;5.22;0.57;;;;;;;9.90;56.17;101105.34;4991306;28;20527;-68
2023/08/09 04:05:44;;;;;;;3.83;0.68;;;;;;;9.74;56.71;101104.97;4987784;28;20037;-67
2023/08/09 04:08:10;;;;;;;7.18;0.47;;;;;;;9.93;55.70;101106.09;4989993;28;20327;-68
2023/08/09 04:10:36;;;;;;;3.88;0.60;;;;;;;10.05;55.60;101112.66;5004140;28;20034;-68
2023/08/09 04:13:02;;;;;;;3.97;0.20;;;;;;;9.96;55.88;101115.59;4992116;28;20081;-68
2023/08/09 04:15:28;;;;;;;2.80;0.20;;;;;;;9.99;55.70;101102.41;4991051;28;20788;-68
2023/08/09 04:17:54;;;;;;;7.25;0.55;;;;;;;9.77;56.16;101105.72;4987056;28;20061;-67
2023/08/09 04:20:19;;;;;;;3.35;0.20;;;;;;;9.97;55.90;101106.88;4990279;28;20544;-68
2023/08/09 04:22:46;;;;;;;6.32;0.55;;;;;;;9.48;57.05;101108.44;4982393;28;20397;-69
2023/08/09 04:25:11;;;;;;;2.28;0.30;;;;;;;9.87;56.00;101106.31;5011136;28;20115;-66
2023/08/09 04:27:39;;;;;;;4.97;0.40;;;;;;;9.89;56.02;101114.09;4988201;28;20046;-68
2023/08/09 04:30:09;;;;;;;2.78;0.40;;;;;;;9.92;56.13;101108.75;4992943;28;20298;-67
2023/08/09 04:32:35;;;;;;;5.63;0.35;;;;;;;10.01;55.69;101108.44;4986422;28;21351;-68
2023/08/09 04:35:00;;;;;;;3.72;1.00;;;;;;;9.71;56.30;101115.53;4993256;28;20556;-68
2023/08/09 04:37:27;;;;;;;0.80;0.20;;;;;;;9.76;56.51;101114.44;4989397;28;20796;-68
2023/08/09 04:39:53;;;;;;;3.65;0.98;;;;;;;9.91;56.36;101117.50;4988559;28;20033;-69
2023/08/09 04:42:19;;;;;;;6.90;0.30;;;;;;;10.06;55.94;101122.22;4989017;28;20056;-70
2023/08/09 04:44:45;;;;;;;2.25;0.20;;;;;;;10.13;55.92;101123.72;4990728;28;20425;-65
2023/08/09 04:47:12;;;;;;;10.23;0.40;;;;;;;10.20;56.02;101117.38;4972784;28;20040;-68
2023/08/09 04:49:37;;;;;;;3.55;0.32;;;;;;;10.15;56.06;101123.66;4987996;28;20033;-68
2023/08/09 04:52:03;;;;;;;3.92;0.28;;;;;;;10.49;55.35;101114.66;4992448;28;20396;-66
2023/08/09 04:54:29;;;;;;;2.20;0.20;;;;;;;10.35;55.65;101117.75;4974634;28;20045;-69
2023/08/09 04:56:54;;;;;;;2.92;0.25;;;;;;;10.38;55.50;101112.41;4990698;28;20419;-68
2023/08/09 04:59:20;;;;;;;3.80;0.35;;;;;;;10.26;55.50;101120.66;4990823;28;20049;-69
2023/08/09 05:01:45;;;;;;;1.58;0.30;;;;;;;10.35;55.50;101123.81;4990618;28;20037;-66
2023/08/09 05:04:11;;;;;;;6.68;0.30;;;;;;;10.31;55.20;101126.59;4988505;28;20079;-65
2023/08/09 05:06:37;;;;;;;2.05;0.40;;;;;;;10.31;55.55;101127.44;4991753;28;20459;-66
2023/08/09 05:09:04;;;;;;;2.08;0.50;;;;;;;10.31;56.01;101137.06;4991055;28;20848;-66
2023/08/09 05:11:29;;;;;;;9.77;0.50;;;;;;;10.52;55.21;101138.88;4994648;28;20052;-65
2023/08/09 05:13:55;;;;;;;3.42;0.38;;;;;;;10.85;55.05;101143.84;4985278;28;20030;-66
2023/08/09 05:16:24;;;;;;;4.20;0.30;;;;;;;10.83;55.15;101149.13;4992359;28;20561;-67
2023/08/09 05:18:51;;;;;;;1.58;0.28;;;;;;;11.12;54.19;101139.34;4989544;28;20041;-67
2023/08/09 05:21:17;;;;;;;2.20;0.25;;;;;;;10.99;54.27;101157.25;4986155;28;20026;-69
2023/08/09 05:23:42;;;;;;;4.95;0.43;;;;;;;11.55;53.54;101155.13;4988163;28;20487;-69
2023/08/09 05:26:08;;;;;;;6.30;0.35;;;;;;;11.73;52.65;101143.06;4988773;28;20127;-70
2023/08/09 05:28:33;;;;;;;1.15;0.30;;;;;;;12.00;52.28;101151.59;4968985;28;20037;-71
2023/08/09 05:30:59;;;;;;;11.35;0.52;;;;;;;13.25;49.57;101150.47;4993006;28;20026;-69
2023/08/09 05:33:24;;;;;;;4.85;0.30;;;;;;;14.47;45.74;101147.16;4989895;28;20199;-70
2023/08/09 05:35:50;;;;;;;4.47;0.40;;;;;;;15.53;44.66;101150.19;4989038;28;20437;-71
2023/08/09 05:38:15;;;;;;;4.40;0.43;;;;;;;17.35;40.24;101149.84;5005535;28;20634;-71
2023/08/09 05:40:41;;;;;;;3.13;0.30;;;;;;;18.71;35.98;101158.38;4989851;28;20152;-71
2023/08/09 05:43:07;;;;;;;2.97;0.20;;;;;;;19.80;34.03;101160.31;4990790;28;20051;-70
2023/08/09 05:45:32;;;;;;;2.95;0.20;;;;;;;20.09;33.70;101153.66;5004599;28;20099;-68
2023/08/09 05:47:58;;;;;;;4.70;0.30;;;;;;;19.58;33.93;101153.97;4990361;28;20049;-68
2023/08/09 05:50:24;;;;;;;6.63;0.20;;;;;;;19.43;34.81;101155.06;5005002;28;20045;-70
2023/08/09 05:52:49;;;;;;;2.78;0.10;;;;;;;15.94;40.77;101167.19;4970413;28;20140;-71
2023/08/09 05:55:15;;;;;;;5.20;0.20;;;;;;;13.27;47.41;101174.88;5002985;28;20531;-71
2023/08/09 05:57:40;;;;;;;1.25;0.10;;;;;;;13.26;46.98;101173.16;4991145;28;20045;-69
2023/08/09 06:00:11;;;;;;;2.95;0.17;;;;;;;12.36;50.15;101171.94;4985397;28;20069;-69
2023/08/09 06:02:36;;;;;;;4.25;0.20;;;;;;;12.31;50.45;101181.75;5001857;28;20057;-68
2023/08/09 06:05:03;;;;;;;6.80;0.40;;;;;;;15.15;45.83;101183.91;5003533;28;20491;-66
2023/08/09 06:07:29;;;;;;;7.13;0.47;;;;;;;17.52;39.23;101178.72;5003885;28;20053;-68
2023/08/09 06:09:54;;;;;;;6.22;0.63;;;;;;;18.00;38.92;101178.22;4990233;28;20029;-67
2023/08/09 06:12:20;;;;;;;2.03;0.30;;;;;;;18.33;37.36;101183.06;4963961;28;20611;-67
2023/08/09 06:14:46;;;;;;;4.50;0.32;;;;;;;16.26;41.76;101191.69;4985858;28;20059;-69
2023/08/09 06:17:12;;;;;;;0.68;0.10;;;;;;;13.93;47.40;101195.38;4967115;28;20307;-66
2023/08/09 06:19:38;;;;;;;0.90;0.30;;;;;;;13.07;50.16;101209.91;4985822;28;20132;-68
2023/08/09 06:22:03;;;;;;;1.75;0.20;;;;;;;12.94;50.61;101197.41;4983746;28;20041;-67
2023/08/09 06:24:29;;;;;;;4.90;0.65;;;;;;;12.50;51.71;101208.91;4989051;28;20042;-67
2023/08/09 06:26:55;;;;;;;1.52;0.20;;;;;;;12.29;52.62;101213.28;4986041;28;20034;-67
2023/08/09 06:29:21;;;;;;;3.05;0.10;;;;;;;12.27;53.13;101215.97;4986859;28;20227;-68
2023/08/09 06:31:47;;;;;;;1.38;0.28;;;;;;;12.60;52.80;101209.34;4990387;28;20574;-66
2023/08/09 06:34:12;;;;;;;2.78;0.20;;;;;;;12.76;52.60;101209.56;4988725;28;20606;-66
2023/08/09 06:36:38;;;;;;;2.72;0.60;;;;;;;12.93;51.68;101209.66;4992151;28;20029;-67
2023/08/09 06:39:04;;;;;;;4.25;0.30;;;;;;;13.32;50.94;101216.66;5000623;28;20459;-68
2023/08/09 06:41:29;;;;;;;2.33;0.50;;;;;;;13.00;51.96;101218.97;4989735;28;20042;-68
2023/08/09 06:43:55;;;;;;;6.32;0.22;;;;;;;12.89;51.13;101216.84;5006325;28;20403;-66
2023/08/09 06:46:21;;;;;;;4.63;0.47;;;;;;;13.04;51.31;101217.06;4983281;28;20396;-64
2023/08/09 06:48:46;;;;;;;4.70;0.20;;;;;;;13.31;50.89;101223.66;4988462;28;20044;-66
2023/08/09 06:51:14;;;;;;;1.35;0.70;;;;;;;15.34;48.56;101226.72;4987374;28;20091;-65
2023/08/09 06:53:39;;;;;;;2.50;0.50;;;;;;;15.95;44.26;101226.88;5001823;28;20038;-66
2023/08/09 06:56:05;;;;;;;6.57;0.30;;;;;;;14.96;46.79;101231.41;4990951;28;20044;-67
2023/08/09 06:58:30;;;;;;;5.25;0.45;;;;;;;14.04;49.06;101228.19;4986081;28;20092;-68
2023/08/09 07:00:56;;;;;;;5.57;0.45;;;;;;;13.76;48.75;101228.66;4990122;28;20330;-68
2023/08/09 07:03:22;;;;;;;2.22;0.20;;;;;;;13.48;50.37;101243.91;4987890;28;20634;-67
2023/08/09 07:05:47;;;;;;;3.50;1.00;;;;;;;13.67;50.11;101246.56;4990963;28;20440;-68
2023/08/09 07:08:13;;;;;;;6.22;0.40;;;;;;;13.20;50.82;101251.34;4990278;28;20141;-68
2023/08/09 07:10:38;;;;;;;7.35;0.30;;;;;;;13.57;50.66;101254.94;4985103;28;20033;-67
2023/08/09 07:13:05;;;;;;;2.90;0.22;;;;;;;13.29;51.37;101258.78;4989727;28;20121;-67
2023/08/09 07:15:31;;;;;;;4.90;0.20;;;;;;;13.53;51.33;101257.66;4988580;28;20037;-67
2023/08/09 07:17:56;;;;;;;3.95;0.40;;;;;;;13.16;52.07;101258.53;5005030;28;20046;-67
2023/08/09 07:20:22;;;;;;;6.53;0.43;;;;;;;13.72;51.50;101265.59;4998391;28;20709;-67
2023/08/09 07:22:47;;;;;;;2.90;0.30;;;;;;;14.20;50.63;101265.91;4991027;28;20068;-67
2023/08/09 07:25:13;;;;;;;4.88;0.65;;;;;;;13.75;50.45;101269.84;4987873;28;20552;-66
2023/08/09 07:27:43;;;;;;;3.50;0.32;;;;;;;14.14;50.39;101263.59;4982721;28;20042;-67
2023/08/09 07:30:10;;;;;;;3.22;0.30;;;;;;;13.85;49.93;101268.50;4992292;28;20099;-68
2023/08/09 07:32:40;;;;;;;3.65;0.30;;;;;;;14.08;50.04;101272.63;4992922;28;20463;-67
2023/08/09 07:35:07;;;;;;;5.38;0.98;;;;;;;14.35;49.97;101270.41;4993717;28;20034;-67
2023/08/09 07:37:37;;;;;;;4.13;0.40;;;;;;;14.76;49.65;101278.03;4989962;28;20497;-67
2023/08/09 07:40:04;;;;;;;5.30;0.30;;;;;;;15.07;47.84;101271.16;4994231;28;20233;-67
2023/08/09 07:42:30;;;;;;;1.55;0.25;;;;;;;14.30;49.59;101277.69;4991222;28;20044;-67
2023/08/09 07:44:55;;;;;;;2.88;0.30;;;;;;;14.41;49.29;101271.94;4990652;28;20041;-68
2023/08/09 07:47:21;;;;;;;3.03;0.13;;;;;;;14.71;50.31;101282.69;5006411;28;20109;-67
2023/08/09 07:49:46;;;;;;;3.90;0.20;;;;;;;16.10;46.95;101286.66;4990935;28;20105;-67
2023/08/09 07:52:12;;;;;;;4.28;0.63;;;;;;;17.55;43.36;101281.56;4991820;28;20540;-67
2023/08/09 07:54:37;;;;;;;4.47;0.35;;;;;;;18.19;43.03;101286.34;4991532;28;20114;-66
2023/08/09 07:57:03;;;;;;;1.95;0.43;;;;;;;18.58;40.00;101274.88;4993943;28;20045;-66
2023/08/09 07:59:28;;;;;;;2.33;0.15;;;;;;;19.05;38.70;101281.38;4989925;28;20141;-68
2023/08/09 08:01:54;;;;;;;1.58;0.15;;;;;;;22.33;35.73;101283.00;5011469;28;20033;-66
2023/08/09 08:04:19;;;;;;;4.22;0.30;;;;;;;23.21;30.78;101277.22;4989538;28;20067;-67
2023/08/09 08:06:45;;;;;;;6.35;0.22;;;;;;;20.82;33.98;101286.19;4993544;28;20100;-67
2023/08/09 08:09:12;;;;;;;4.88;0.65;;;;;;;20.15;35.40;101295.66;4990538;28;20034;-68
2023/08/09 08:11:41;;;;;;;6.50;0.43;;;;;;;18.86;37.19;101291.53;4991525;28;20359;-67
2023/08/09 08:14:08;;;;;;;4.97;0.20;;;;;;;18.86;37.74;101300.31;4993908;28;20586;-67
2023/08/09 08:16:34;;;;;;;4.32;0.28;;;;;;;20.52;34.90;101300.88;4987839;28;20033;-67
2023/08/09 08:19:00;;;;;;;6.93;0.20;;;;;;;20.89;33.00;101303.41;4991826;28;20163;-67
2023/08/09 08:21:25;;;;;;;7.97;0.38;;;;;;;20.68;33.73;101308.50;4990424;28;20041;-67
2023/08/09 08:23:52;;;;;;;3.15;0.45;;;;;;;20.41;34.22;101304.31;4993185;28;20048;-66
2023/08/09 08:26:18;;;;;;;7.78;0.50;;;;;;;18.16;37.32;101311.16;4990608;28;20471;-67
2023/08/09 08:28:44;;;;;;;1.55;0.20;;;;;;;17.77;38.34;101314.59;4990344;28;20151;-67
2023/08/09 08:31:09;;;;;;;6.03;0.47;;;;;;;16.34;40.11;101320.50;4995084;28;20037;-67
2023/08/09 08:33:35;;;;;;;7.18;0.60;;;;;;;16.08;41.74;101325.47;4988657;28;20042;-67
2023/08/09 08:36:01;;;;;;;3.17;0.30;;;;;;;15.92;43.05;101330.72;4994271;28;20081;-68
2023/08/09 08:38:27;;;;;;;3.78;0.40;;;;;;;16.78;41.68;101327.66;4987288;28;20041;-67
2023/08/09 08:40:54;;;;;;;8.98;0.50;;;;;;;19.37;37.83;101330.41;4992647;28;20044;-67
2023/08/09 08:43:20;;;;;;;2.00;0.20;;;;;;;22.38;33.38;101323.41;4984114;28;20354;-67
2023/08/09 08:45:47;;;;;;;3.13;0.40;;;;;;;24.85;27.94;101324.75;5006031;28;20061;-66
2023/08/09 08:48:12;;;;;;;3.47;0.30;;;;;;;22.28;29.74;101322.50;4992189;28;20544;-67
2023/08/09 08:50:39;;;;;;;3.15;0.10;;;;;;;20.16;33.54;101325.69;4989077;28;20056;-67
2023/08/09 08:53:06;;;;;;;6.47;0.20;;;;;;;18.54;36.60;101338.72;4992767;28;20034;-68
2023/08/09 08:55:32;;;;;;;1.77;0.20;;;;;;;17.22;38.74;101342.59;4989166;28;20821;-67
2023/08/09 08:57:57;;;;;;;5.88;0.20;;;;;;;15.92;40.35;101346.53;4990370;28;20046;-67
2023/08/09 09:00:23;;;;;;;2.55;0.30;;;;;;;17.71;37.52;101338.75;4988695;28;20540;-68
2023/08/09 09:02:49;;;;;;;5.70;0.40;;;;;;;19.53;34.90;101340.81;4986460;28;20042;-66
2023/08/09 09:05:16;;;;;;;7.55;0.70;;;;;;;21.54;31.72;101336.44;4990834;28;20033;-67
2023/08/09 09:07:45;;;;;;;4.47;0.28;;;;;;;22.40;30.70;101332.09;5006842;28;20242;-68
2023/08/09 09:10:12;;;;;;;5.13;0.45;;;;;;;20.90;31.99;101345.78;4991366;28;20239;-68
2023/08/09 09:12:41;;;;;;;0.80;0.20;;;;;;;18.73;34.37;101347.13;5000245;28;20100;-68
2023/08/09 09:15:08;;;;;;;4.78;0.20;;;;;;;17.77;35.80;101352.44;4990345;28;20044;-67
2023/08/09 09:17:42;;;;;;;2.53;0.20;;;;;;;18.97;33.61;101343.81;4985547;28;21012;-67
2023/08/09 09:20:23;;;;;;;5.30;0.30;;;;;;;18.56;34.17;101350.03;4991447;28;20112;-67
2023/08/09 09:22:50;;;;;;;4.10;0.30;;;;;;;18.24;35.45;101350.38;4989621;28;20136;-68
2023/08/09 09:25:17;;;;;;;2.10;0.40;;;;;;;17.49;36.22;101353.28;4991345;28;20046;-67
2023/08/09 09:27:46;;;;;;;5.20;0.10;;;;;;;17.77;36.12;101349.78;4990088;28;20049;-68
2023/08/09 09:30:13;;;;;;;4.75;0.75;;;;;;;17.36;36.10;101352.34;4992919;28;20428;-70
2023/08/09 09:32:56;;;;;;;1.70;0.20;;;;;;;17.07;37.46;101359.38;4988810;28;20041;-67
2023/08/09 09:35:25;;;;;;;2.45;0.28;;;;;;;16.81;38.31;101364.41;4985935;28;20038;-68
2023/08/09 09:37:52;;;;;;;4.07;0.20;;;;;;;18.16;36.78;101363.22;4986771;28;20046;-68
2023/08/09 09:40:31;;;;;;;1.88;0.22;;;;;;;18.78;34.96;101352.94;5002481;28;20124;-67
2023/08/09 09:42:58;;;;;;;1.52;0.30;;;;;;;18.86;35.84;101363.03;4984815;28;20049;-67
2023/08/09 09:45:27;;;;;;;6.40;0.38;;;;;;;18.71;33.65;101359.63;4989794;28;20471;-66
2023/08/09 09:47:54;;;;;;;2.72;0.20;;;;;;;18.59;33.77;101360.44;4986791;28;20050;-67
2023/08/09 09:50:27;;;;;;;1.48;0.30;;;;;;;19.10;32.75;101363.22;4989234;28;20038;-66
2023/08/09 09:52:54;;;;;;;2.65;0.32;;;;;;;18.94;33.73;101351.94;4985651;28;20575;-66
2023/08/09 09:55:25;;;;;;;2.85;0.40;;;;;;;18.83;34.15;101364.09;5004401;28;20511;-66
2023/08/09 09:57:52;;;;;;;1.58;0.25;;;;;;;18.15;33.88;101372.09;4985291;28;20129;-67
2023/08/09 10:00:21;;;;;;;2.08;0.52;;;;;;;18.09;33.40;101375.97;4989871;28;20033;-66
2023/08/09 10:02:49;;;;;;;2.88;0.28;;;;;;;18.10;33.20;101376.84;4991114;28;20060;-67
2023/08/09 10:05:19;;;;;;;2.35;0.57;;;;;;;18.37;33.09;101377.72;4985606;28;20029;-66
2023/08/09 10:07:47;;;;;;;1.27;0.20;;;;;;;18.17;32.38;101376.34;4985713;28;20137;-66
2023/08/09 10:10:14;;;;;;;3.65;0.20;;;;;;;18.84;32.23;101386.13;4986925;28;20462;-66
2023/08/09 10:12:47;;;;;;;7.80;0.30;;;;;;;18.91;31.32;101381.28;4983067;28;20056;-67
2023/08/09 10:15:14;;;;;;;1.75;0.20;;;;;;;18.97;30.66;101380.88;4992421;28;20044;-68
2023/08/09 10:17:57;;;;;;;1.58;0.20;;;;;;;19.00;31.15;101383.31;5001861;28;21055;-69
2023/08/09 10:20:24;;;;;;;5.60;0.38;;;;;;;18.17;31.65;101383.44;4987365;28;20041;-67
2023/08/09 10:22:50;;;;;;;3.97;0.20;;;;;;;18.42;32.13;101391.50;4990228;28;20376;-68
2023/08/09 10:25:15;;;;;;;3.97;0.20;;;;;;;19.15;30.66;101384.94;4984960;28;20045;-67
2023/08/09 10:27:53;;;;;;;2.05;0.43;;;;;;;19.25;30.32;101374.53;4987670;28;20634;-67
2023/08/09 10:30:28;;;;;;;1.42;0.17;;;;;;;19.66;29.52;101379.63;4988464;28;20025;-67
2023/08/09 10:32:56;;;;;;;2.25;0.22;;;;;;;19.73;30.17;101385.34;4988628;28;20258;-68
2023/08/09 10:35:51;;;;;;;2.10;0.10;;;;;;;19.76;28.93;101397.53;4980638;28;20212;-68
2023/08/09 10:38:19;;;;;;;2.58;0.13;;;;;;;19.64;28.38;101391.31;4967604;28;20099;-67
2023/08/09 10:40:52;;;;;;;1.45;0.32;;;;;;;19.55;28.95;101400.75;4964798;28;20527;-66
2023/08/09 10:43:25;;;;;;;1.65;0.20;;;;;;;20.65;29.57;101407.03;4987650;28;20048;-66
2023/08/09 10:45:53;;;;;;;1.52;0.10;;;;;;;20.20;28.32;101399.66;4985667;28;20029;-67
2023/08/09 10:48:23;;;;;;;0.43;0.10;;;;;;;20.70;28.15;101407.50;4986365;28;20049;-64
2023/08/09 10:51:07;;;;;;;1.80;0.13;;;;;;;21.45;27.86;101408.94;4987645;28;20040;-66
2023/08/09 10:54:03;;;;;;;1.52;0.10;;;;;;;21.86;25.55;101402.19;4997208;28;20851;-66
2023/08/09 10:56:41;;;;;;;2.35;0.10;;;;;;;21.26;27.09;101410.34;4963659;28;20570;-66
2023/08/09 10:59:23;;;;;;;2.28;0.20;;;;;;;20.15;30.02;101411.53;5000236;28;20138;-65
2023/08/09 11:01:49;;;;;;;6.43;0.13;;;;;;;20.29;30.57;101414.09;4987017;28;20392;-69
2023/08/09 11:04:17;;;;;;;1.90;0.20;;;;;;;19.67;30.74;101422.91;5006214;28;20060;-66
2023/08/09 11:06:45;;;;;;;1.45;0.20;;;;;;;19.09;31.11;101430.38;4991473;28;20492;-66
2023/08/09 11:09:16;;;;;;;3.60;0.10;;;;;;;18.38;31.93;101421.75;4989200;28;20411;-66
2023/08/09 11:11:43;;;;;;;5.40;0.47;;;;;;;18.89;31.31;101427.25;5002248;28;20038;-67
2023/08/09 11:14:10;;;;;;;2.90;0.20;;;;;;;19.60;31.71;101427.78;4991331;28;20064;-67
2023/08/09 11:16:35;;;;;;;1.90;0.10;;;;;;;18.99;31.58;101432.81;4983813;28;20096;-67
2023/08/09 11:19:04;;;;;;;1.98;0.28;;;;;;;19.12;32.10;101432.81;5006264;28;20125;-66
2023/08/09 11:21:45;;;;;;;3.35;0.20;;;;;;;18.62;32.68;101439.66;5001871;28;20282;-64
2023/08/09 11:24:14;;;;;;;0.77;0.10;;;;;;;19.00;32.07;101441.59;4993937;28;20515;-66
2023/08/09 11:26:50;;;;;;;2.10;0.15;;;;;;;18.28;33.24;101449.78;4990224;28;20419;-67
2023/08/09 11:29:17;;;;;;;2.00;0.20;;;;;;;18.29;33.12;101451.47;4988943;28;20061;-66